createdAt,value
2022-08-24T00:01:34.733Z,95394.53
2022-08-24T00:04:20.951Z,95389.50
2022-08-24T00:07:13.010Z,95398.84
2022-08-24T00:10:10.395Z,95404.50
2022-08-24T00:12:56.060Z,95411.13
2022-08-24T00:15:42.100Z,95410.03
2022-08-24T00:18:28.424Z,95395.00
2022-08-24T00:21:15.091Z,95407.75
2022-08-24T00:24:03.104Z,95396.91
2022-08-24T00:26:49.367Z,95396.06
2022-08-24T00:29:35.625Z,95384.03
2022-08-24T00:32:21.936Z,95402.91
2022-08-24T00:35:08.708Z,95398.53
2022-08-24T00:37:55.414Z,95406.13
2022-08-24T00:40:45.904Z,95409.16
2022-08-24T00:43:33.093Z,95398.25
2022-08-24T00:46:23.140Z,95397.69
2022-08-24T00:49:21.486Z,95385.16
2022-08-24T00:52:56.264Z,95395.19
2022-08-24T00:55:49.494Z,95382.38
2022-08-24T00:58:39.336Z,95387.53
2022-08-24T01:01:26.644Z,95385.91
2022-08-24T01:04:16.744Z,95388.13
2022-08-24T01:07:04.463Z,95385.63
2022-08-24T01:09:57.002Z,95376.94
2022-08-24T01:12:50.544Z,95380.50
2022-08-24T01:15:50.094Z,95383.22
2022-08-24T01:18:52.510Z,95383.53
2022-08-24T01:21:56.419Z,95384.28
2022-08-24T01:24:42.868Z,95385.66
2022-08-24T01:27:29.502Z,95373.94
2022-08-24T01:30:17.048Z,95394.38
2022-08-24T01:33:06.248Z,95393.25
2022-08-24T01:35:58.724Z,95382.56
2022-08-24T01:38:46.029Z,95389.66
2022-08-24T01:41:32.186Z,95396.47
2022-08-24T01:44:20.756Z,95383.59
2022-08-24T01:47:08.756Z,95391.72
2022-08-24T01:49:54.965Z,95381.97
2022-08-24T01:53:03.968Z,95397.31
2022-08-24T01:55:50.278Z,95390.72
2022-08-24T01:58:37.078Z,95403.81
2022-08-24T02:01:23.512Z,95390.78
2022-08-24T02:04:10.190Z,95399.91
2022-08-24T02:06:56.774Z,95391.88
2022-08-24T02:09:43.101Z,95397.06
2022-08-24T02:12:29.214Z,95390.84
2022-08-24T02:15:15.828Z,95396.81
2022-08-24T02:18:01.655Z,95389.44
2022-08-24T02:20:47.993Z,95399.59
2022-08-24T02:23:34.752Z,95390.56
2022-08-24T02:26:20.821Z,95400.97
2022-08-24T02:29:06.900Z,95399.63
2022-08-24T02:31:52.748Z,95406.19
2022-08-24T02:34:38.963Z,95410.25
2022-08-24T02:37:25.019Z,95416.28
2022-08-24T02:40:12.604Z,95414.91
2022-08-24T02:42:59.205Z,95405.09
2022-08-24T02:45:50.241Z,95416.03
2022-08-24T02:48:38.150Z,95411.13
2022-08-24T02:51:27.868Z,95399.09
2022-08-24T02:54:18.356Z,95396.63
2022-08-24T02:57:05.988Z,95424.19
2022-08-24T02:59:52.267Z,95414.06
2022-08-24T03:02:39.718Z,95431.81
2022-08-24T03:05:26.294Z,95430.69
2022-08-24T03:08:13.412Z,95442.69
2022-08-24T03:11:00.527Z,95433.09
2022-08-24T03:13:46.348Z,95447.88
2022-08-24T03:16:32.340Z,95448.09
2022-08-24T03:19:20.336Z,95433.59
2022-08-24T03:22:06.590Z,95453.53
2022-08-24T03:24:53.265Z,95444.47
2022-08-24T03:27:39.626Z,95454.91
2022-08-24T03:30:26.956Z,95459.25
2022-08-24T03:33:13.138Z,95458.44
2022-08-24T03:35:59.257Z,95440.69
2022-08-24T03:38:45.965Z,95446.97
2022-08-24T03:41:32.408Z,95461.44
2022-08-24T03:44:25.904Z,95468.78
2022-08-24T03:47:13.460Z,95449.41
2022-08-24T03:49:59.594Z,95448.91
2022-08-24T03:52:46.409Z,95448.09
2022-08-24T03:55:32.548Z,95456.81
2022-08-24T03:58:19.580Z,95454.03
2022-08-24T04:01:06.170Z,95436.88
2022-08-24T04:03:54.267Z,95451.94
2022-08-24T04:06:46.840Z,95456.28
2022-08-24T04:09:33.837Z,95453.44
2022-08-24T04:12:19.884Z,95457.59
2022-08-24T04:15:10.424Z,95456.81
2022-08-24T04:17:56.737Z,95465.81
2022-08-24T04:20:43.490Z,95454.88
2022-08-24T04:23:47.074Z,95455.13
2022-08-24T04:26:45.629Z,95463.31
2022-08-24T04:29:35.887Z,95455.91
2022-08-24T04:32:21.841Z,95461.91
2022-08-24T04:35:09.077Z,95460.78
2022-08-24T04:37:55.164Z,95477.16
2022-08-24T04:40:44.433Z,95478.28
2022-08-24T04:43:34.805Z,95474.72
2022-08-24T04:46:20.720Z,95482.09
2022-08-24T04:49:06.578Z,95475.56
2022-08-24T04:51:52.456Z,95470.44
2022-08-24T04:54:38.803Z,95470.44
2022-08-24T04:57:28.702Z,95471.81
2022-08-24T05:00:16.645Z,95474.25
2022-08-24T05:03:04.242Z,95481.94
2022-08-24T05:05:51.504Z,95471.03
2022-08-24T05:08:38.162Z,95490.97
2022-08-24T05:11:24.805Z,95476.53
2022-08-24T05:14:11.262Z,95477.63
2022-08-24T05:16:58.503Z,95477.38
2022-08-24T05:19:44.641Z,95458.81
2022-08-24T05:22:30.923Z,95480.13
2022-08-24T05:25:17.506Z,95462.97
2022-08-24T05:28:03.792Z,95477.69
2022-08-24T05:30:51.148Z,95479.38
2022-08-24T05:33:38.087Z,95479.94
2022-08-24T05:36:33.005Z,95485.69
2022-08-24T05:39:19.002Z,95482.44
2022-08-24T05:42:13.648Z,95483.59
2022-08-24T05:45:07.183Z,95479.25
2022-08-24T05:47:53.372Z,95468.25
2022-08-24T05:50:59.706Z,95456.56
2022-08-24T05:53:50.492Z,95485.31
2022-08-24T05:56:37.588Z,95472.50
2022-08-24T05:59:23.588Z,95456.97
2022-08-24T06:02:12.443Z,95464.91
2022-08-24T06:04:58.800Z,95462.75
2022-08-24T06:07:44.767Z,95466.59
2022-08-24T06:10:36.650Z,95451.84
2022-08-24T06:13:24.122Z,95459.47
2022-08-24T06:16:21.572Z,95451.34
2022-08-24T06:19:11.344Z,95448.13
2022-08-24T06:21:57.674Z,95450.03
2022-08-24T06:25:04.781Z,95438.84
2022-08-24T06:27:50.940Z,95440.50
2022-08-24T06:30:37.661Z,95416.19
2022-08-24T06:33:35.834Z,95423.03
2022-08-24T06:36:23.017Z,95429.63
2022-08-24T06:39:09.994Z,95428.16
2022-08-24T06:42:00.155Z,95427.38
2022-08-24T06:44:51.057Z,95427.16
2022-08-24T06:47:41.837Z,95429.34
2022-08-24T06:50:28.489Z,95437.25
2022-08-24T06:53:15.849Z,95439.47
2022-08-24T06:56:02.129Z,95434.00
2022-08-24T06:58:52.552Z,95444.59
2022-08-24T07:01:38.898Z,95444.09
2022-08-24T07:04:28.230Z,95440.56
2022-08-24T07:07:17.673Z,95450.09
2022-08-24T07:10:05.325Z,95455.03
2022-08-24T07:12:51.258Z,95445.19
2022-08-24T07:15:37.910Z,95457.75
2022-08-24T07:18:28.971Z,95456.69
2022-08-24T07:21:19.331Z,95457.75
2022-08-24T07:24:07.264Z,95453.94
2022-08-24T07:26:56.351Z,95452.31
2022-08-24T14:15:17.188Z,95352.16
2022-08-24T14:18:11.572Z,95359.16
2022-08-24T14:21:27.190Z,95335.22
2022-08-24T14:24:34.613Z,95348.53
2022-08-24T14:27:43.881Z,95349.19
2022-08-24T14:30:29.897Z,95343.19
2022-08-24T14:33:27.197Z,95323.59
2022-08-24T14:36:17.905Z,95332.31
2022-08-24T14:39:10.070Z,95336.41
2022-08-24T14:41:59.181Z,95348.97
2022-08-24T14:45:02.561Z,95332.81
2022-08-24T14:48:03.822Z,95340.69
2022-08-24T14:51:17.175Z,95341.56
2022-08-24T14:54:30.544Z,95338.06
2022-08-24T14:57:36.848Z,95324.75
2022-08-24T15:00:26.009Z,95334.72
2022-08-24T15:03:30.569Z,95345.31
2022-08-24T15:06:27.774Z,95343.19
2022-08-24T16:02:26.013Z,95347.34
2022-08-24T16:05:37.043Z,95345.75
2022-08-24T16:08:23.931Z,95335.84
2022-08-24T16:11:22.217Z,95347.38
2022-08-24T16:14:47.867Z,95354.53
2022-08-24T16:17:49.306Z,95349.22
2022-08-24T16:20:37.465Z,95350.53
2022-08-24T16:23:28.642Z,95341.56
2022-08-24T16:26:38.662Z,95360.91
2022-08-24T16:29:38.932Z,95360.72
2022-08-24T16:32:30.564Z,95373.66
2022-08-24T16:35:25.464Z,95376.41
2022-08-24T16:38:11.158Z,95369.59
2022-08-24T16:41:02.621Z,95370.28
2022-08-24T16:43:49.222Z,95371.63
2022-08-24T16:46:35.642Z,95372.66
2022-08-24T16:49:21.535Z,95363.47
2022-08-24T16:52:08.368Z,95381.91
2022-08-24T16:54:54.412Z,95385.31
2022-08-24T16:57:40.318Z,95390.09
2022-08-24T17:00:26.194Z,95401.19
2022-08-24T17:03:15.227Z,95411.59
2022-08-24T17:06:01.309Z,95407.41
2022-08-24T17:08:47.917Z,95412.63
2022-08-24T17:11:34.740Z,95417.28
2022-08-24T17:14:20.761Z,95431.66
2022-08-24T17:17:13.373Z,95429.00
2022-08-24T17:19:59.458Z,95445.88
2022-08-24T17:22:45.384Z,95455.81
2022-08-24T17:25:31.492Z,95431.38
2022-08-24T17:28:18.545Z,95446.44
2022-08-24T17:31:06.201Z,95462.84
2022-08-24T17:33:53.187Z,95464.56
2022-08-24T17:36:43.514Z,95446.88
2022-08-24T17:39:29.894Z,95466.47
2022-08-24T17:42:39.982Z,95481.81
2022-08-24T17:45:23.008Z,95461.09
2022-08-24T17:48:19.979Z,95477.06
2022-08-24T17:51:05.934Z,95489.09
2022-08-24T17:53:52.229Z,95500.41
2022-08-24T17:56:40.961Z,95496.94
2022-08-24T17:59:33.045Z,95499.03
2022-08-24T18:02:19.335Z,95501.25
2022-08-24T18:05:08.222Z,95506.22
2022-08-24T18:07:54.958Z,95503.63
2022-08-24T18:10:41.393Z,95497.59
2022-08-24T18:13:28.058Z,95516.84
2022-08-24T18:16:20.820Z,95509.72
2022-08-24T18:19:06.912Z,95490.38
2022-08-24T18:21:52.876Z,95499.66
2022-08-24T18:24:42.371Z,95511.97
2022-08-24T18:27:30.461Z,95491.78
2022-08-24T18:30:30.486Z,95487.66
2022-08-24T18:33:17.569Z,95495.59
2022-08-24T18:36:03.893Z,95490.41
2022-08-24T18:38:50.236Z,95494.00
2022-08-24T18:41:38.563Z,95486.69
2022-08-24T18:44:28.351Z,95489.38
2022-08-24T18:47:17.291Z,95496.38
2022-08-24T18:50:05.229Z,95489.53
2022-08-24T18:52:51.210Z,95501.81
2022-08-24T18:55:39.089Z,95493.34
2022-08-24T18:58:25.367Z,95491.72
2022-08-24T19:01:12.235Z,95510.06
2022-08-24T19:03:58.981Z,95518.03
2022-08-24T19:06:44.841Z,95518.91
2022-08-24T19:09:34.203Z,95526.56
2022-08-24T19:12:20.937Z,95538.91
2022-08-24T19:15:07.784Z,95530.19
2022-08-24T19:18:16.084Z,95538.09
2022-08-24T19:21:02.217Z,95544.69
2022-08-24T19:23:48.430Z,95550.72
2022-08-24T19:26:36.174Z,95549.38
2022-08-24T19:29:44.839Z,95556.75
2022-08-24T19:32:29.710Z,95546.69
2022-08-24T19:35:16.421Z,95565.25
2022-08-24T19:38:02.841Z,95560.72
2022-08-24T19:40:49.129Z,95561.56
2022-08-24T19:43:55.704Z,95547.56
2022-08-24T19:46:42.345Z,95550.28
2022-08-24T19:49:28.254Z,95565.34
2022-08-24T19:52:15.064Z,95563.72
2022-08-24T19:55:01.126Z,95556.88
2022-08-24T19:57:47.323Z,95554.16
2022-08-24T20:00:57.763Z,95567.59
2022-08-24T20:03:44.099Z,95567.88
2022-08-24T20:06:32.001Z,95557.78
2022-08-24T20:09:21.750Z,95570.09
2022-08-24T20:12:09.343Z,95550.38
2022-08-24T20:14:55.543Z,95569.53
2022-08-24T20:17:41.691Z,95540.81
2022-08-24T20:20:28.578Z,95546.00
2022-08-24T20:23:14.796Z,95532.84
2022-08-24T20:26:03.315Z,95544.59
2022-08-24T20:28:51.967Z,95556.97
2022-08-24T20:31:38.810Z,95548.47
2022-08-24T20:34:25.162Z,95535.69
2022-08-24T20:37:17.456Z,95549.06
2022-08-24T20:40:04.383Z,95559.72
2022-08-24T20:42:50.641Z,95565.47
2022-08-24T20:45:37.596Z,95581.63
2022-08-24T20:48:28.992Z,95579.97
2022-08-24T20:51:15.471Z,95576.44
2022-08-24T20:54:01.503Z,95560.84
2022-08-24T20:56:48.750Z,95567.66
2022-08-24T20:59:35.389Z,95571.25
2022-08-24T21:02:21.645Z,95565.19
2022-08-24T21:05:08.391Z,95563.56
2022-08-24T21:07:57.266Z,95555.91
2022-08-24T21:10:43.529Z,95563.56
2022-08-24T21:13:29.585Z,95550.72
2022-08-24T21:16:16.611Z,95535.41
2022-08-24T21:19:03.427Z,95548.53
2022-08-24T21:21:49.457Z,95529.13
2022-08-24T21:24:35.725Z,95555.91
2022-08-24T21:27:23.616Z,95559.22
2022-08-24T21:30:12.535Z,95542.25
2022-08-24T21:33:20.310Z,95551.81
2022-08-24T21:36:09.099Z,95552.91
2022-08-24T21:38:55.219Z,95563.03
2022-08-24T21:41:41.563Z,95560.31
2022-08-24T21:44:27.799Z,95548.00
2022-08-24T21:47:13.626Z,95555.38
2022-08-24T21:49:59.630Z,95559.22
2022-08-24T21:52:45.461Z,95549.91
2022-08-24T21:55:38.239Z,95548.53
2022-08-24T21:58:24.486Z,95546.59
2022-08-24T22:01:10.333Z,95521.75
2022-08-24T22:03:56.414Z,95522.56
2022-08-24T22:06:42.701Z,95521.75
2022-08-24T22:09:28.906Z,95515.44
2022-08-24T22:12:15.309Z,95524.75
2022-08-24T22:15:02.640Z,95512.69
2022-08-24T22:17:52.482Z,95519.03
2022-08-24T22:20:39.178Z,95520.91
2022-08-24T22:23:26.400Z,95511.06
2022-08-24T22:26:13.465Z,95518.72
2022-08-24T22:29:00.892Z,95525.00
2022-08-24T22:31:47.043Z,95510.25
2022-08-24T22:34:33.243Z,95507.22
2022-08-24T22:37:19.210Z,95497.09
2022-08-24T22:40:06.570Z,95498.44
2022-08-24T22:43:08.274Z,95514.03
2022-08-24T22:45:54.310Z,95517.31
2022-08-24T22:48:40.675Z,95508.03
2022-08-24T22:51:26.684Z,95523.03
2022-08-24T22:54:12.847Z,95524.69
2022-08-24T22:56:58.946Z,95515.94
2022-08-24T22:59:45.901Z,95524.13
2022-08-24T23:02:32.301Z,95524.94
2022-08-24T23:05:18.685Z,95519.47
2022-08-24T23:08:05.698Z,95532.31
2022-08-24T23:10:51.453Z,95541.59
2022-08-24T23:13:41.976Z,95538.06
2022-08-24T23:16:29.894Z,95525.75
2022-08-24T23:19:36.634Z,95514.81
2022-08-24T23:22:22.697Z,95518.66
2022-08-24T23:25:11.699Z,95514.81
2022-08-24T23:27:57.573Z,95500.63
2022-08-24T23:30:43.554Z,95484.78
2022-08-24T23:33:29.349Z,95473.81
2022-08-24T23:36:21.431Z,95476.53
2022-08-24T23:39:09.097Z,95486.66
2022-08-24T23:41:55.224Z,95488.81
2022-08-24T23:44:41.367Z,95485.53
2022-08-24T23:47:27.825Z,95492.09
2022-08-24T23:50:13.907Z,95494.03
2022-08-24T23:52:59.931Z,95459.03
2022-08-24T23:55:46.990Z,95472.41
2022-08-24T23:58:33.815Z,95475.44
